createdAt,value
2022-12-04T00:01:07.144Z,20.10
2022-12-04T00:03:34.199Z,17.10
2022-12-04T00:06:06.609Z,18.70
2022-12-04T00:08:33.615Z,16.70
2022-12-04T00:11:01.098Z,18.60
2022-12-04T00:13:27.964Z,17.50
2022-12-04T00:15:54.880Z,16.80
2022-12-04T00:18:21.678Z,17.40
2022-12-04T00:20:48.642Z,16.80
2022-12-04T00:23:15.716Z,16.70
2022-12-04T00:25:42.501Z,15.20
2022-12-04T00:28:09.562Z,16.40
2022-12-04T00:30:40.814Z,15.80
2022-12-04T00:33:07.681Z,15.80
2022-12-04T00:35:34.437Z,15.30
2022-12-04T00:38:02.685Z,15.00
2022-12-04T00:40:29.359Z,14.00
2022-12-04T00:42:56.171Z,14.30
2022-12-04T00:45:22.952Z,14.00
2022-12-04T00:47:49.710Z,13.00
2022-12-04T00:50:16.443Z,14.10
2022-12-04T00:52:43.408Z,13.60
2022-12-04T00:55:10.280Z,13.90
2022-12-04T00:57:37.044Z,12.80
2022-12-04T01:00:05.455Z,13.50
2022-12-04T01:02:33.545Z,12.60
2022-12-04T01:05:01.042Z,12.90
2022-12-04T01:07:27.857Z,12.30
2022-12-04T01:09:55.297Z,10.80
2022-12-04T01:12:22.295Z,12.00
2022-12-04T01:14:49.122Z,13.20
2022-12-04T01:17:15.803Z,12.50
2022-12-04T01:19:42.621Z,11.70
2022-12-04T01:22:09.377Z,11.30
2022-12-04T01:24:36.073Z,13.00
2022-12-04T01:27:02.781Z,14.80
2022-12-04T01:29:29.471Z,14.70
2022-12-04T01:31:56.215Z,11.90
2022-12-04T01:34:24.613Z,11.60
2022-12-04T01:36:52.294Z,10.90
2022-12-04T01:39:19.075Z,12.70
2022-12-04T01:41:45.846Z,10.50
2022-12-04T01:44:18.452Z,11.30
2022-12-04T01:46:49.684Z,11.20
2022-12-04T01:49:46.636Z,11.10
2022-12-04T01:52:17.285Z,12.70
2022-12-04T01:54:49.529Z,12.60
2022-12-04T01:57:21.496Z,13.30
2022-12-04T01:59:53.438Z,13.10
2022-12-04T02:02:33.438Z,12.30
2022-12-04T02:05:02.683Z,13.60
2022-12-04T02:07:29.616Z,13.30
2022-12-04T02:10:03.076Z,12.10
2022-12-04T02:12:45.568Z,11.30
2022-12-04T02:15:22.614Z,12.00
2022-12-04T02:18:10.988Z,12.60
2022-12-04T02:20:59.576Z,13.60
2022-12-04T02:24:00.851Z,14.30
2022-12-04T02:26:47.389Z,13.70
2022-12-04T02:29:23.314Z,14.50
2022-12-04T02:32:19.466Z,12.00
2022-12-04T02:35:04.592Z,11.20
2022-12-04T02:37:41.886Z,13.60
2022-12-04T02:40:16.358Z,13.90
2022-12-04T02:42:51.954Z,13.90
2022-12-04T02:45:29.746Z,13.80
2022-12-04T02:48:01.670Z,10.50
2022-12-04T02:50:30.041Z,10.30
2022-12-04T02:53:22.768Z,11.00
2022-12-04T02:55:55.121Z,12.30
2022-12-04T02:58:30.658Z,11.80
2022-12-04T03:01:02.068Z,12.10
2022-12-04T03:03:33.049Z,12.30
2022-12-04T03:06:09.800Z,8.90
2022-12-04T03:08:44.729Z,10.70
2022-12-04T03:11:11.792Z,11.50
2022-12-04T03:13:44.800Z,11.20
2022-12-04T03:16:37.582Z,10.20
2022-12-04T03:19:15.660Z,10.30
2022-12-04T03:21:49.117Z,11.30
2022-12-04T03:24:37.421Z,9.50
2022-12-04T03:27:16.346Z,8.30
2022-12-04T03:29:57.954Z,9.50
2022-12-04T03:32:33.894Z,9.80
2022-12-04T03:35:06.500Z,8.50
2022-12-04T03:37:59.380Z,9.00
2022-12-04T03:40:37.512Z,8.80
2022-12-04T03:43:19.750Z,10.00
2022-12-04T03:46:05.020Z,10.20
2022-12-04T03:48:43.616Z,9.90
2022-12-04T03:51:26.323Z,11.20
2022-12-04T03:54:04.726Z,10.60
2022-12-04T03:56:38.121Z,10.50
2022-12-04T03:59:17.550Z,10.10
2022-12-04T04:01:48.716Z,11.80
2022-12-04T04:04:21.879Z,9.90
2022-12-04T04:06:54.864Z,11.60
2022-12-04T04:09:26.032Z,11.40
2022-12-04T04:12:07.748Z,12.00
2022-12-04T04:14:55.802Z,12.40
2022-12-04T04:17:46.368Z,11.30
2022-12-04T04:20:37.213Z,10.50
2022-12-04T04:23:26.860Z,11.70
2022-12-04T04:25:54.552Z,10.70
2022-12-04T04:28:36.347Z,11.40
2022-12-04T04:31:44.999Z,10.30
2022-12-04T04:34:27.137Z,10.90
2022-12-04T04:36:53.882Z,10.30
2022-12-04T04:39:35.120Z,9.20
2022-12-04T04:42:24.348Z,10.10
2022-12-04T04:45:00.336Z,9.50
2022-12-04T04:47:35.525Z,9.40
2022-12-04T04:50:06.811Z,8.70
2022-12-04T04:52:35.336Z,10.00
2022-12-04T04:55:02.962Z,10.10
2022-12-04T04:57:35.224Z,9.20
2022-12-04T05:00:10.618Z,8.90
2022-12-04T05:02:37.721Z,9.10
2022-12-04T05:05:05.493Z,9.00
2022-12-04T05:07:32.340Z,10.20
2022-12-04T05:09:59.424Z,11.50
2022-12-04T05:12:26.310Z,11.40
2022-12-04T05:14:53.189Z,13.00
2022-12-04T05:17:19.902Z,17.10
2022-12-04T05:19:53.028Z,13.80
2022-12-04T05:22:24.093Z,14.10
2022-12-04T05:24:51.220Z,17.30
2022-12-04T05:27:18.430Z,12.90
2022-12-04T05:29:45.345Z,12.10
2022-12-04T05:32:12.081Z,11.80
2022-12-04T05:34:38.984Z,13.30
2022-12-04T05:37:05.832Z,14.20
2022-12-04T05:39:35.077Z,13.40
2022-12-04T05:42:01.752Z,10.80
2022-12-04T05:44:28.445Z,12.30
2022-12-04T05:46:55.193Z,11.90
2022-12-04T05:49:22.111Z,11.40
2022-12-04T05:51:50.593Z,12.70
2022-12-04T05:54:18.888Z,11.10
2022-12-04T05:56:45.677Z,15.40
2022-12-04T05:59:13.181Z,14.30
2022-12-04T06:01:40.320Z,16.30
2022-12-04T06:04:07.659Z,18.80
2022-12-04T06:06:35.055Z,20.00
2022-12-04T06:09:02.417Z,16.00
2022-12-04T06:11:35.097Z,15.50
2022-12-04T06:14:04.730Z,13.80
2022-12-04T06:16:35.485Z,11.40
2022-12-04T06:19:07.312Z,10.80
2022-12-04T06:21:38.478Z,12.50
2022-12-04T06:24:06.356Z,14.30
2022-12-04T06:26:33.857Z,13.00
2022-12-04T06:29:00.821Z,12.80
2022-12-04T06:31:29.297Z,15.00
2022-12-04T06:33:57.234Z,13.20
2022-12-04T06:36:24.782Z,15.90
2022-12-04T06:38:54.699Z,30.80
2022-12-04T06:41:22.204Z,21.70
2022-12-04T06:43:50.174Z,15.20
2022-12-04T06:46:31.591Z,26.30
2022-12-04T06:49:00.059Z,22.50
2022-12-04T06:51:29.968Z,18.40
2022-12-04T06:53:57.218Z,13.30
2022-12-04T06:56:26.444Z,12.00
2022-12-04T06:58:55.510Z,13.20
2022-12-04T07:01:25.604Z,11.30
2022-12-04T07:03:53.989Z,12.00
2022-12-04T07:06:28.409Z,14.80
2022-12-04T07:09:11.987Z,16.20
2022-12-04T07:11:41.105Z,15.70
2022-12-04T07:14:08.281Z,17.40
2022-12-04T07:16:40.714Z,16.30
2022-12-04T07:19:09.581Z,51.30
2022-12-04T07:21:36.347Z,17.20
2022-12-04T07:24:03.623Z,14.20
2022-12-04T07:26:30.384Z,15.30
2022-12-04T07:28:59.442Z,14.00
2022-12-04T07:31:28.462Z,17.50
2022-12-04T07:33:56.280Z,18.70
2022-12-04T07:36:24.683Z,39.40
2022-12-04T07:38:51.708Z,21.80
2022-12-04T07:41:19.290Z,21.10
2022-12-04T07:43:46.405Z,20.00
2022-12-04T07:46:17.188Z,24.60
2022-12-04T07:48:44.214Z,25.30
2022-12-04T07:51:15.081Z,22.00
2022-12-04T07:53:43.030Z,48.10
2022-12-04T07:56:11.405Z,61.60
2022-12-04T07:58:39.053Z,29.90
2022-12-04T08:01:10.242Z,40.00
2022-12-04T08:03:39.827Z,21.80
2022-12-04T08:06:10.526Z,23.00
2022-12-04T08:08:37.644Z,25.00
2022-12-04T08:11:06.571Z,23.80
2022-12-04T08:13:34.618Z,25.40
2022-12-04T08:16:03.430Z,25.40
2022-12-04T08:18:30.983Z,28.40
2022-12-04T08:21:07.988Z,23.20
2022-12-04T08:23:35.354Z,22.40
2022-12-04T08:26:03.260Z,19.90
2022-12-04T08:28:31.237Z,29.00
2022-12-04T08:31:07.221Z,38.90
2022-12-04T08:33:34.904Z,28.40
2022-12-04T08:36:01.886Z,28.30
2022-12-04T08:38:28.656Z,18.20
2022-12-04T08:41:00.486Z,21.10
2022-12-04T08:43:27.865Z,21.90
2022-12-04T08:45:59.428Z,20.60
2022-12-04T08:48:26.638Z,13.40
2022-12-04T08:50:54.003Z,11.50
2022-12-04T08:53:22.135Z,13.10
2022-12-04T08:55:49.608Z,12.30
2022-12-04T08:58:16.797Z,12.80
2022-12-04T09:00:43.943Z,37.50
2022-12-04T09:03:16.381Z,21.80
2022-12-04T09:05:45.279Z,15.60
2022-12-04T09:08:17.126Z,14.20
2022-12-04T09:10:44.438Z,14.30
2022-12-04T09:13:11.141Z,13.90
2022-12-04T09:15:39.423Z,13.00
2022-12-04T09:18:07.158Z,37.00
2022-12-04T09:20:34.099Z,24.60
2022-12-04T09:23:04.333Z,25.80
2022-12-04T09:25:36.335Z,27.50
2022-12-04T09:28:03.630Z,25.40
2022-12-04T09:30:30.573Z,25.50
2022-12-04T09:32:57.359Z,24.50
2022-12-04T09:35:24.258Z,23.00
2022-12-04T09:37:51.083Z,22.70
2022-12-04T09:40:27.530Z,21.00
2022-12-04T09:43:23.938Z,18.00
2022-12-04T09:45:53.608Z,17.80
2022-12-04T09:48:26.038Z,50.10
2022-12-04T09:50:54.344Z,22.00
2022-12-04T09:53:48.269Z,9.80
2022-12-04T09:56:21.990Z,12.40
2022-12-04T09:59:02.642Z,12.50
2022-12-04T10:01:43.022Z,13.20
2022-12-04T10:04:11.431Z,16.20
2022-12-04T10:06:57.577Z,12.20
2022-12-04T10:09:42.817Z,24.70
2022-12-04T10:12:37.384Z,11.40
2022-12-04T10:15:22.687Z,16.30
2022-12-04T10:18:08.142Z,13.70
2022-12-04T10:20:53.600Z,21.30
2022-12-04T10:24:12.640Z,11.30
2022-12-04T10:26:44.762Z,11.00
2022-12-04T10:29:33.872Z,10.50
2022-12-04T10:32:22.079Z,11.00
2022-12-04T10:34:51.808Z,12.50
2022-12-04T10:37:19.360Z,13.90
2022-12-04T10:39:55.268Z,14.90
2022-12-04T10:42:27.426Z,15.20
2022-12-04T10:44:54.872Z,13.50
2022-12-04T10:47:24.162Z,12.30
2022-12-04T10:50:00.060Z,12.00
2022-12-04T10:52:26.876Z,10.40
2022-12-04T10:55:00.923Z,11.10
2022-12-04T10:57:44.894Z,10.60
2022-12-04T11:00:27.965Z,11.80
2022-12-04T11:02:57.712Z,13.60
2022-12-04T11:05:36.492Z,14.50
2022-12-04T11:08:04.591Z,15.00
2022-12-04T11:10:32.053Z,15.00
2022-12-04T11:13:02.336Z,15.10
2022-12-04T11:15:30.209Z,13.40
2022-12-04T11:18:18.908Z,13.20
2022-12-04T11:20:53.473Z,15.30
2022-12-04T11:23:21.045Z,18.90
2022-12-04T11:25:50.924Z,21.00
2022-12-04T11:28:41.018Z,23.70
2022-12-04T11:31:15.099Z,25.40
2022-12-04T11:33:49.282Z,24.80
2022-12-04T11:38:52.649Z,21.00
2022-12-04T11:41:45.646Z,19.00
2022-12-04T11:44:25.841Z,19.80
2022-12-04T11:46:55.214Z,19.60
2022-12-04T11:49:23.851Z,21.80
2022-12-04T11:52:09.408Z,20.80
2022-12-04T11:54:38.934Z,19.40
2022-12-04T11:57:05.715Z,19.20
2022-12-04T11:59:38.584Z,15.80
2022-12-04T12:02:33.400Z,11.80
2022-12-04T12:05:07.555Z,12.10
2022-12-04T12:08:02.744Z,13.40
2022-12-04T12:10:45.415Z,12.10
2022-12-04T12:13:34.732Z,13.30
2022-12-04T12:16:30.678Z,11.00
2022-12-04T12:19:21.601Z,14.60
2022-12-04T12:22:18.190Z,12.40
2022-12-04T12:24:51.568Z,14.60
2022-12-04T12:27:27.413Z,14.30
2022-12-04T12:30:06.014Z,14.40
2022-12-04T12:32:47.381Z,15.60
2022-12-04T12:35:35.742Z,15.90
2022-12-04T12:38:09.767Z,12.80
2022-12-04T12:40:42.650Z,13.30
2022-12-04T12:43:09.384Z,13.30
2022-12-04T12:45:56.443Z,15.00
2022-12-04T12:48:25.910Z,13.00
2022-12-04T12:51:28.556Z,14.20
2022-12-04T12:53:52.891Z,13.20
2022-12-04T12:56:31.177Z,13.90
2022-12-04T12:59:02.727Z,14.40
2022-12-04T13:01:59.975Z,14.80
2022-12-04T13:04:43.148Z,14.70
2022-12-04T13:07:38.705Z,15.70
2022-12-04T13:10:27.074Z,15.00
2022-12-04T13:13:01.685Z,13.60
2022-12-04T13:15:45.058Z,13.60
2022-12-04T13:18:27.051Z,18.70
2022-12-04T13:21:00.473Z,16.70
2022-12-04T13:23:33.179Z,17.60
2022-12-04T13:26:13.860Z,16.80
2022-12-04T13:28:52.961Z,16.80
2022-12-04T13:31:36.984Z,17.60
2022-12-04T13:34:03.715Z,17.30
2022-12-04T13:36:55.092Z,18.90
2022-12-04T13:39:43.496Z,18.50
2022-12-04T13:42:36.607Z,17.50
2022-12-04T13:45:10.086Z,17.70
2022-12-04T13:47:37.468Z,19.10
2022-12-04T13:50:20.056Z,17.30
2022-12-04T13:52:48.793Z,18.70
2022-12-04T13:55:35.891Z,18.90
2022-12-04T13:58:25.604Z,17.60
2022-12-04T14:01:30.247Z,20.30
2022-12-04T14:03:59.099Z,21.10
2022-12-04T14:06:31.161Z,19.20
2022-12-04T14:09:07.103Z,22.00
2022-12-04T14:11:44.687Z,17.80
2022-12-04T14:14:23.693Z,13.60
2022-12-04T14:16:51.311Z,13.80
2022-12-04T14:19:31.876Z,16.60
2022-12-04T14:21:58.803Z,23.40
2022-12-04T14:24:36.640Z,21.40
2022-12-04T14:27:31.459Z,24.20
2022-12-04T14:32:31.286Z,15.30
2022-12-04T14:34:59.492Z,12.70
2022-12-04T14:37:33.713Z,13.50
2022-12-04T14:40:02.991Z,14.50
2022-12-04T14:42:38.267Z,14.20
2022-12-04T14:45:19.692Z,15.40
2022-12-04T14:47:52.275Z,21.90
2022-12-04T14:50:38.661Z,26.20
2022-12-04T14:53:05.408Z,25.00
2022-12-04T14:55:45.240Z,24.50
2022-12-04T14:58:29.780Z,23.60
2022-12-04T15:03:27.028Z,20.70
2022-12-04T15:06:06.246Z,21.30
2022-12-04T15:08:34.492Z,23.30
2022-12-04T15:11:20.295Z,28.60
2022-12-04T15:13:47.215Z,28.70
2022-12-04T15:16:19.720Z,26.50
2022-12-04T15:18:58.356Z,24.90
2022-12-04T15:21:38.188Z,24.10
2022-12-04T15:24:10.023Z,25.10
2022-12-04T15:26:39.500Z,24.50
2022-12-04T15:29:08.421Z,19.90
2022-12-04T15:31:46.213Z,18.50
2022-12-04T15:34:16.821Z,21.20
2022-12-04T15:36:56.925Z,19.00
2022-12-04T15:39:27.303Z,21.90
2022-12-04T15:42:23.360Z,25.00
2022-12-04T15:44:52.141Z,25.60
2022-12-04T15:47:24.938Z,23.60
2022-12-04T15:49:51.992Z,24.30
2022-12-04T15:52:21.571Z,19.50
2022-12-04T15:54:59.217Z,21.00
2022-12-04T15:57:30.953Z,26.10
2022-12-04T16:00:02.224Z,25.60
2022-12-04T16:02:35.475Z,28.50
2022-12-04T16:05:13.896Z,26.00
2022-12-04T16:07:52.457Z,21.20
2022-12-04T16:10:35.324Z,21.00
2022-12-04T16:13:04.950Z,27.10
2022-12-04T16:15:43.164Z,25.10
2022-12-04T16:18:13.349Z,26.40
2022-12-04T16:20:40.948Z,28.40
2022-12-04T16:23:08.902Z,26.70
2022-12-04T16:25:35.573Z,24.40
2022-12-04T16:28:02.382Z,24.10
2022-12-04T16:30:32.986Z,23.90
2022-12-04T16:33:00.157Z,21.20
2022-12-04T16:35:26.929Z,22.30
2022-12-04T16:37:53.661Z,25.30
2022-12-04T16:40:20.563Z,25.80
2022-12-04T16:42:47.352Z,27.50
2022-12-04T16:45:32.972Z,23.50
2022-12-04T16:47:59.765Z,17.50
2022-12-04T16:50:27.502Z,18.40
2022-12-04T16:52:54.943Z,18.30
2022-12-04T16:55:28.737Z,15.20
2022-12-04T16:57:55.554Z,16.10
2022-12-04T17:00:22.590Z,15.00
2022-12-04T17:02:49.960Z,19.20
2022-12-04T17:05:26.647Z,19.10
2022-12-04T17:07:54.004Z,17.90
2022-12-04T17:10:24.327Z,19.70
2022-12-04T17:12:52.971Z,20.90
2022-12-04T17:15:20.358Z,19.80
2022-12-04T17:17:47.231Z,17.30
2022-12-04T17:20:17.527Z,15.70
2022-12-04T17:22:44.341Z,14.70
2022-12-04T17:25:11.822Z,15.50
2022-12-04T17:27:39.266Z,15.20
2022-12-04T17:30:07.744Z,15.40
2022-12-04T17:32:35.067Z,19.00
2022-12-04T17:35:04.136Z,21.00
2022-12-04T17:37:32.529Z,19.70
2022-12-04T17:39:59.416Z,22.10
2022-12-04T17:42:26.640Z,20.60
2022-12-04T17:44:53.988Z,17.90
2022-12-04T17:47:21.102Z,19.50
2022-12-04T17:49:47.945Z,21.40
2022-12-04T17:52:14.766Z,19.90
2022-12-04T17:54:41.594Z,21.30
2022-12-04T17:57:08.307Z,23.40
2022-12-04T17:59:35.048Z,27.10
2022-12-04T18:02:01.839Z,24.80
2022-12-04T18:04:28.651Z,20.40
2022-12-04T18:06:55.924Z,17.90
2022-12-04T18:09:22.650Z,17.30
2022-12-04T18:11:49.733Z,16.70
2022-12-04T18:14:21.494Z,17.10
2022-12-04T18:16:52.392Z,17.40
2022-12-04T18:19:20.904Z,19.00
2022-12-04T18:21:48.622Z,17.90
2022-12-04T18:24:16.829Z,17.70
2022-12-04T18:26:45.882Z,22.40
2022-12-04T18:29:19.075Z,26.40
2022-12-04T18:31:46.439Z,24.60
2022-12-04T18:34:14.194Z,26.50
2022-12-04T18:36:42.362Z,20.90
2022-12-04T18:39:15.709Z,19.30
2022-12-04T18:41:43.415Z,20.00
2022-12-04T18:44:11.023Z,23.70
2022-12-04T18:46:38.348Z,25.20
2022-12-04T18:49:06.108Z,25.40
2022-12-04T18:51:34.405Z,21.80
2022-12-04T18:54:06.842Z,30.80
2022-12-04T18:56:34.967Z,33.30
2022-12-04T18:59:08.061Z,25.40
2022-12-04T19:01:35.350Z,25.50
2022-12-04T19:04:05.979Z,23.70
2022-12-04T19:06:36.116Z,25.20
2022-12-04T19:09:07.508Z,34.90
2022-12-04T19:11:37.182Z,29.50
2022-12-04T19:14:12.561Z,25.90
2022-12-04T19:16:43.403Z,27.00
2022-12-04T19:19:11.917Z,27.80
2022-12-04T19:21:38.849Z,30.20
2022-12-04T19:24:06.247Z,26.10
2022-12-04T19:26:34.019Z,33.30
2022-12-04T19:29:02.140Z,28.60
2022-12-04T19:31:32.536Z,20.80
2022-12-04T19:33:59.813Z,13.70
2022-12-04T19:36:29.351Z,21.10
2022-12-04T19:38:57.588Z,30.00
2022-12-04T19:41:27.199Z,41.50
2022-12-04T19:43:56.814Z,21.80
2022-12-04T19:46:25.560Z,22.80
2022-12-04T19:48:58.213Z,23.20
2022-12-04T19:51:25.583Z,26.20
2022-12-04T19:53:53.965Z,21.90
2022-12-04T19:56:23.909Z,18.40
2022-12-04T19:58:52.629Z,14.00
2022-12-04T20:01:24.627Z,29.70
2022-12-04T20:03:52.035Z,24.50
2022-12-04T20:06:21.412Z,25.70
2022-12-04T20:08:57.617Z,20.20
2022-12-04T20:11:25.488Z,34.50
2022-12-04T20:13:56.145Z,16.30
2022-12-04T20:16:25.087Z,26.30
2022-12-04T20:18:52.887Z,29.60
2022-12-04T20:21:22.453Z,34.20
2022-12-04T20:23:51.126Z,37.80
2022-12-04T20:26:21.947Z,37.80
2022-12-04T20:28:48.829Z,28.40
2022-12-04T20:31:22.112Z,47.70
2022-12-04T20:33:50.941Z,29.60
2022-12-04T20:36:19.375Z,32.10
2022-12-04T20:38:46.236Z,16.40
2022-12-04T20:41:15.486Z,14.60
2022-12-04T20:43:43.776Z,17.50
2022-12-04T20:46:22.416Z,16.00
2022-12-04T20:48:50.483Z,17.50
2022-12-04T20:51:28.612Z,18.10
2022-12-04T20:53:59.699Z,15.50
2022-12-04T20:56:29.522Z,19.20
2022-12-04T20:58:58.633Z,32.60
2022-12-04T21:01:26.029Z,49.60
2022-12-04T21:03:53.019Z,30.50
2022-12-04T21:06:34.253Z,20.30
2022-12-04T21:09:05.654Z,51.90
2022-12-04T21:11:41.493Z,30.20
2022-12-04T21:14:39.158Z,25.40
2022-12-04T21:17:08.793Z,14.70
2022-12-04T21:19:35.885Z,20.40
2022-12-04T21:22:02.846Z,41.10
2022-12-04T21:24:35.525Z,27.60
2022-12-04T21:27:02.481Z,16.40
2022-12-04T21:29:29.515Z,14.50
2022-12-04T21:31:56.325Z,15.40
2022-12-04T21:34:23.243Z,21.30
2022-12-04T21:36:50.081Z,15.60
2022-12-04T21:39:16.853Z,14.30
2022-12-04T21:42:02.501Z,15.50
2022-12-04T21:44:29.290Z,15.30
2022-12-04T21:46:56.101Z,15.30
2022-12-04T21:49:23.652Z,20.30
2022-12-04T21:51:58.858Z,20.30
2022-12-04T21:54:27.452Z,19.60
2022-12-04T21:56:55.448Z,19.00
2022-12-04T21:59:23.548Z,20.40
2022-12-04T22:01:50.652Z,20.20
2022-12-04T22:04:17.529Z,19.60
2022-12-04T22:06:44.536Z,23.20
2022-12-04T22:09:12.774Z,19.40
2022-12-04T22:11:43.768Z,19.50
2022-12-04T22:14:11.672Z,19.70
2022-12-04T22:16:43.282Z,24.40
2022-12-04T22:19:11.986Z,20.90
2022-12-04T22:21:39.684Z,19.70
2022-12-04T22:24:07.354Z,21.00
2022-12-04T22:26:34.056Z,32.90
2022-12-04T22:29:01.886Z,31.60
2022-12-04T22:31:30.490Z,21.90
2022-12-04T22:33:59.541Z,31.00
2022-12-04T22:36:32.086Z,15.90
2022-12-04T22:39:09.699Z,20.10
2022-12-04T22:41:38.127Z,14.30
2022-12-04T22:44:05.449Z,33.20
2022-12-04T22:46:33.369Z,47.80
2022-12-04T22:49:01.002Z,85.50
2022-12-04T22:51:28.106Z,35.40
2022-12-04T22:53:56.750Z,45.50
2022-12-04T22:56:27.173Z,26.30
2022-12-04T22:58:54.304Z,18.50
2022-12-04T23:01:29.632Z,28.90
2022-12-04T23:03:57.507Z,16.60
2022-12-04T23:06:26.825Z,20.10
2022-12-04T23:09:08.918Z,16.80
2022-12-04T23:11:36.150Z,15.20
2022-12-04T23:14:06.227Z,17.30
2022-12-04T23:16:35.536Z,16.70
2022-12-04T23:19:03.565Z,14.90
2022-12-04T23:21:30.482Z,37.90
2022-12-04T23:23:57.605Z,32.10
2022-12-04T23:26:27.378Z,14.10
2022-12-04T23:28:54.880Z,20.30
2022-12-04T23:31:21.681Z,13.60
2022-12-04T23:33:48.598Z,14.90
2022-12-04T23:36:15.774Z,21.10
2022-12-04T23:38:43.989Z,15.30
2022-12-04T23:41:12.228Z,30.00
2022-12-04T23:43:39.285Z,22.40
2022-12-04T23:46:10.981Z,17.20
2022-12-04T23:48:40.503Z,16.80
2022-12-04T23:51:08.600Z,17.70
2022-12-04T23:53:35.923Z,19.00
2022-12-04T23:56:13.356Z,26.00
2022-12-04T23:58:40.884Z,18.90
